»·PEaware :: N122AJ KSNA-KSNA

N122AJ :: KSNA-KSNA

FLIGHT INFORMATION

Flight Status: Arrived
Operator: Privately registered:
United States
More flights under this callsign
Pilot: Anonymous 13363 (13363)
Aircraft: CESSNA 208 CARAVAN
(C208)
More flights by this aircraft type
Origin: KSNA John Wayne-Orange Co
United States
Destination: KSNA John Wayne-Orange Co
United States
More flights between these airports :: More routes between these airports
Route: SLI
File this flight plan on PilotEdge
Remarks: Twitch.tv / ajonesieee
Altitude:
(Current/Filed)
3,000ft
Speed:
(Current/Filed)
460kts
Departed: 09-Aug-17 07:42 PM
Arrived: 09-Aug-17 08:02 PM
Distance/Time
Traveled:
0nm/0:20
Distance/Time
To Go:
Arrived

Flight Plot

Page will automatically refresh every two minutes.


Map Options




Map Legend


Flown Route
Filed Route
Departure Airport
Arrival Airport
Navaid (VOR, NDB)
Fix

Horizontal Profiles

Position Reports

Time Latitude Longitude Heading Altitude Ground
Speed
09-Aug-17 19:18 33.667653 -117.870946 221 61ft 0kts
09-Aug-17 19:19 33.667653 -117.870946 221 61ft 0kts
09-Aug-17 19:20 33.667653 -117.870946 221 61ft 0kts
09-Aug-17 19:21 33.667653 -117.870946 221 61ft 0kts
09-Aug-17 19:22 33.667653 -117.870946 221 61ft 0kts
09-Aug-17 19:23 33.667653 -117.870946 221 61ft 0kts
09-Aug-17 19:24 33.667653 -117.870946 221 61ft 0kts
09-Aug-17 19:25 33.667653 -117.870946 221 61ft 0kts
09-Aug-17 19:26 33.667641 -117.870959 222 61ft 1kts
09-Aug-17 19:27 33.667830 -117.871452 309 61ft 0kts
09-Aug-17 19:28 33.669462 -117.870608 40 61ft 15kts
09-Aug-17 19:29 33.673383 -117.866969 15 61ft 12kts
09-Aug-17 19:30 33.673701 -117.867081 322 61ft 0kts
09-Aug-17 19:31 33.673589 -117.867225 148 61ft 7kts
09-Aug-17 19:32 33.671855 -117.866992 28 61ft 0kts
09-Aug-17 19:33 33.671855 -117.866992 28 61ft 0kts
09-Aug-17 19:34 33.671855 -117.866992 28 61ft 0kts
09-Aug-17 19:35 33.671855 -117.866992 28 61ft 0kts
09-Aug-17 19:36 33.671855 -117.866992 28 61ft 0kts
09-Aug-17 19:37 33.671855 -117.866992 28 61ft 0kts
09-Aug-17 19:38 33.671855 -117.866992 28 61ft 0kts
09-Aug-17 19:39 33.671855 -117.866992 28 61ft 0kts
09-Aug-17 19:40 33.672318 -117.867427 296 61ft 1kts
09-Aug-17 19:41 33.673115 -117.867169 43 61ft 10kts
09-Aug-17 19:42 33.676185 -117.865740 28 61ft 15kts
09-Aug-17 19:43 33.679896 -117.863506 323 61ft 10kts
09-Aug-17 19:44 33.679984 -117.863682 294 61ft 0kts
09-Aug-17 19:45 33.677799 -117.865639 206 61ft 69kts
09-Aug-17 19:46 33.659239 -117.886349 232 1361ft 96kts
09-Aug-17 19:47 33.643125 -117.911492 232 2835ft 96kts
09-Aug-17 19:48 33.620908 -117.945460 233 3008ft 153kts
09-Aug-17 19:49 33.647769 -117.967997 8 2993ft 173kts
09-Aug-17 19:50 33.687175 -117.959792 8 2986ft 174kts
09-Aug-17 19:51 33.742364 -117.948177 8 2986ft 174kts
09-Aug-17 19:52 33.787752 -117.937223 27 2983ft 172kts
09-Aug-17 19:53 33.826733 -117.907038 32 2984ft 167kts
09-Aug-17 19:54 33.858812 -117.881841 32 2983ft 165kts
09-Aug-17 19:55 33.896692 -117.852647 32 2982ft 163kts
09-Aug-17 19:56 33.933354 -117.824970 32 2983ft 163kts
09-Aug-17 19:57 33.930102 -117.775471 112 2986ft 166kts
09-Aug-17 19:58 33.903853 -117.735171 179 2988ft 167kts
09-Aug-17 19:59 33.861092 -117.751375 209 2984ft 165kts
09-Aug-17 20:00 33.820968 -117.776864 210 2985ft 162kts
09-Aug-17 20:01 33.780309 -117.802632 209 2254ft 161kts
09-Aug-17 20:02 33.743123 -117.826135 208 1421ft 131kts
09-Aug-17 20:03 33.717163 -117.842616 209 909ft 100kts
09-Aug-17 20:04 33.694005 -117.857279 208 376ft 82kts
09-Aug-17 20:05 33.676292 -117.868465 203 61ft 32kts
09-Aug-17 20:06 33.674066 -117.868027 118 61ft 8kts
09-Aug-17 20:07 33.671830 -117.867674 113 61ft 8kts
09-Aug-17 20:08 33.671810 -117.866912 25 61ft 0kts
09-Aug-17 20:09 33.671810 -117.866912 25 61ft 0kts
09-Aug-17 20:10 33.671810 -117.866912 25 61ft 0kts
09-Aug-17 20:11 33.671810 -117.866912 25 61ft 0kts
09-Aug-17 20:12 33.671810 -117.866912 25 61ft 0kts
09-Aug-17 20:13 33.671810 -117.866912 25 61ft 0kts
09-Aug-17 20:14 33.671810 -117.866912 25 61ft 0kts

Navigation Log

Ident Type
1. KSNA Airport
2. SLI Navaid
3. KSNA Airport